Weather at American Lake Seaplane Base

Public forecast

Using degrees Fahrenheit for public forecast. Weather courtesy of forecast.io.

Closest aviation weather report (METAR) to American Lake Seaplane Base

Closest report is McChord Air Force Base, 3.5 nm (6.4 km) E.

2024/05/25 10:05 (retrieved 39 minutes ago)

KTCM 251005Z AUTO 21008KT 10SM BKN011 OVC022 10/07 A2985 RMK AO2 CIG 011V024 BKN V SCT SLP112

Closest aviation forecast (TAF) to American Lake Seaplane Base

Forecast is more than 12 hours old.

Closest forecast is Gray Army Air Field, 3.8 nm (7.1 km) SSW.

2024/05/24 21:06 (retrieved 14 hours ago)

TAF TAF KGRF 242100Z 2421/2603 17012G18KT 9999 VCSH SCT020 BKN025 OVC035 610604 QNH2986INS BECMG 2501/2502 18012G18KT 9999 -SHRA SCT015 BKN020 OVC035 QNH2980INS BECMG 2505/2506 19010G15KT 9999 NSW OVC015 620502 510102 QNH2983INS BECMG 2516/2517 22015G25KT 9999 BKN025 OVC040 620403 510102 QNH2989INS TX15/2423Z TN09/2506Z